sensor_id;sensor_type;location;lat;lon;timestamp;temperature;humidity
79010;DHT22;73031;44.726;37.760;2024-02-26T00:00:53;5.30;66.63
79010;DHT22;73031;44.726;37.760;2024-02-26T00:01:54;5.30;66.48
79010;DHT22;73031;44.726;37.760;2024-02-26T00:02:56;5.30;66.42
79010;DHT22;73031;44.726;37.760;2024-02-26T00:03:57;5.34;66.42
79010;DHT22;73031;44.726;37.760;2024-02-26T00:05:00;5.34;66.22
79010;DHT22;73031;44.726;37.760;2024-02-26T00:06:02;5.36;66.38
79010;DHT22;73031;44.726;37.760;2024-02-26T00:07:03;5.31;66.27
79010;DHT22;73031;44.726;37.760;2024-02-26T00:08:04;5.27;66.55
79010;DHT22;73031;44.726;37.760;2024-02-26T00:09:05;5.30;66.41
79010;DHT22;73031;44.726;37.760;2024-02-26T00:10:07;5.27;66.31
79010;DHT22;73031;44.726;37.760;2024-02-26T00:11:09;5.26;66.57
79010;DHT22;73031;44.726;37.760;2024-02-26T00:12:10;5.23;66.65
79010;DHT22;73031;44.726;37.760;2024-02-26T00:13:11;5.22;66.60
79010;DHT22;73031;44.726;37.760;2024-02-26T00:14:12;5.16;66.48
79010;DHT22;73031;44.726;37.760;2024-02-26T00:15:14;5.18;66.92
79010;DHT22;73031;44.726;37.760;2024-02-26T00:16:15;5.15;67.01
79010;DHT22;73031;44.726;37.760;2024-02-26T00:17:16;5.13;67.06
79010;DHT22;73031;44.726;37.760;2024-02-26T00:18:17;5.13;67.06
79010;DHT22;73031;44.726;37.760;2024-02-26T00:19:18;5.12;67.09
79010;DHT22;73031;44.726;37.760;2024-02-26T00:20:20;5.06;67.20
79010;DHT22;73031;44.726;37.760;2024-02-26T00:21:21;5.08;67.11
79010;DHT22;73031;44.726;37.760;2024-02-26T00:22:22;5.02;67.04
79010;DHT22;73031;44.726;37.760;2024-02-26T00:23:23;5.02;67.22
79010;DHT22;73031;44.726;37.760;2024-02-26T00:24:25;5.02;67.50
79010;DHT22;73031;44.726;37.760;2024-02-26T00:25:26;5.05;67.64
79010;DHT22;73031;44.726;37.760;2024-02-26T00:26:27;5.00;67.41
79010;DHT22;73031;44.726;37.760;2024-02-26T00:27:28;5.02;67.60
79010;DHT22;73031;44.726;37.760;2024-02-26T00:28:29;5.00;67.59
79010;DHT22;73031;44.726;37.760;2024-02-26T00:29:30;4.99;67.62
79010;DHT22;73031;44.726;37.760;2024-02-26T00:30:33;5.00;67.49
79010;DHT22;73031;44.726;37.760;2024-02-26T00:31:34;4.97;67.58
79010;DHT22;73031;44.726;37.760;2024-02-26T00:32:35;4.95;67.55
79010;DHT22;73031;44.726;37.760;2024-02-26T00:33:36;4.95;67.83
79010;DHT22;73031;44.726;37.760;2024-02-26T00:34:37;4.96;67.85
79010;DHT22;73031;44.726;37.760;2024-02-26T00:35:38;4.99;67.55
79010;DHT22;73031;44.726;37.760;2024-02-26T00:36:39;4.99;67.27
79010;DHT22;73031;44.726;37.760;2024-02-26T00:37:40;4.95;67.45
79010;DHT22;73031;44.726;37.760;2024-02-26T00:38:43;4.93;67.19
79010;DHT22;73031;44.726;37.760;2024-02-26T00:39:47;4.89;67.36
79010;DHT22;73031;44.726;37.760;2024-02-26T00:40:48;4.93;67.28
79010;DHT22;73031;44.726;37.760;2024-02-26T00:41:49;4.92;67.15
79010;DHT22;73031;44.726;37.760;2024-02-26T00:42:52;4.92;67.23
79010;DHT22;73031;44.726;37.760;2024-02-26T00:43:53;4.88;67.23
79010;DHT22;73031;44.726;37.760;2024-02-26T00:44:54;4.88;67.77
79010;DHT22;73031;44.726;37.760;2024-02-26T00:45:55;4.89;67.80
79010;DHT22;73031;44.726;37.760;2024-02-26T00:46:56;4.88;68.05
79010;DHT22;73031;44.726;37.760;2024-02-26T00:47:58;4.91;67.85
79010;DHT22;73031;44.726;37.760;2024-02-26T00:48:59;4.91;67.93
79010;DHT22;73031;44.726;37.760;2024-02-26T00:50:01;4.92;67.70
79010;DHT22;73031;44.726;37.760;2024-02-26T00:51:03;4.89;67.69
79010;DHT22;73031;44.726;37.760;2024-02-26T00:52:08;4.89;67.81
79010;DHT22;73031;44.726;37.760;2024-02-26T00:53:09;4.89;67.77
79010;DHT22;73031;44.726;37.760;2024-02-26T00:54:10;4.92;67.75
79010;DHT22;73031;44.726;37.760;2024-02-26T00:55:11;4.91;67.43
79010;DHT22;73031;44.726;37.760;2024-02-26T00:56:12;4.88;67.23
79010;DHT22;73031;44.726;37.760;2024-02-26T00:57:13;4.85;67.41
79010;DHT22;73031;44.726;37.760;2024-02-26T00:58:14;4.85;67.71
79010;DHT22;73031;44.726;37.760;2024-02-26T00:59:15;4.79;67.81
79010;DHT22;73031;44.726;37.760;2024-02-26T01:00:17;4.84;67.76
79010;DHT22;73031;44.726;37.760;2024-02-26T01:01:18;4.86;67.55
79010;DHT22;73031;44.726;37.760;2024-02-26T01:02:19;4.84;67.67
79010;DHT22;73031;44.726;37.760;2024-02-26T01:03:20;4.81;67.61
79010;DHT22;73031;44.726;37.760;2024-02-26T01:04:21;4.84;67.60
79010;DHT22;73031;44.726;37.760;2024-02-26T01:05:22;4.81;67.53
79010;DHT22;73031;44.726;37.760;2024-02-26T01:06:23;4.81;67.37
79010;DHT22;73031;44.726;37.760;2024-02-26T01:07:24;4.79;67.47
79010;DHT22;73031;44.726;37.760;2024-02-26T01:08:25;4.82;67.61
79010;DHT22;73031;44.726;37.760;2024-02-26T01:09:26;4.78;67.45
79010;DHT22;73031;44.726;37.760;2024-02-26T01:10:27;4.78;67.36
79010;DHT22;73031;44.726;37.760;2024-02-26T01:11:28;4.75;67.71
79010;DHT22;73031;44.726;37.760;2024-02-26T01:12:30;4.78;67.65
79010;DHT22;73031;44.726;37.760;2024-02-26T01:13:31;4.74;67.60
79010;DHT22;73031;44.726;37.760;2024-02-26T01:14:32;4.74;67.68
79010;DHT22;73031;44.726;37.760;2024-02-26T01:15:33;4.75;67.62
79010;DHT22;73031;44.726;37.760;2024-02-26T01:16:34;4.71;67.48
79010;DHT22;73031;44.726;37.760;2024-02-26T01:17:35;4.69;67.72
79010;DHT22;73031;44.726;37.760;2024-02-26T01:18:36;4.71;67.62
79010;DHT22;73031;44.726;37.760;2024-02-26T01:19:37;4.71;67.54
79010;DHT22;73031;44.726;37.760;2024-02-26T01:20:38;4.67;67.66
79010;DHT22;73031;44.726;37.760;2024-02-26T01:21:39;4.68;67.73
79010;DHT22;73031;44.726;37.760;2024-02-26T01:22:40;4.62;67.46
79010;DHT22;73031;44.726;37.760;2024-02-26T01:23:41;4.62;67.61
79010;DHT22;73031;44.726;37.760;2024-02-26T01:24:43;4.62;67.65
79010;DHT22;73031;44.726;37.760;2024-02-26T01:25:44;4.62;67.47
79010;DHT22;73031;44.726;37.760;2024-02-26T01:26:46;4.62;67.63
79010;DHT22;73031;44.726;37.760;2024-02-26T01:27:47;4.57;67.62
79010;DHT22;73031;44.726;37.760;2024-02-26T01:28:48;4.58;68.32
79010;DHT22;73031;44.726;37.760;2024-02-26T01:29:49;4.60;68.09
79010;DHT22;73031;44.726;37.760;2024-02-26T01:30:50;4.60;67.75
79010;DHT22;73031;44.726;37.760;2024-02-26T01:31:51;4.58;68.02
79010;DHT22;73031;44.726;37.760;2024-02-26T01:32:52;4.58;67.94
79010;DHT22;73031;44.726;37.760;2024-02-26T01:33:54;4.57;67.79
79010;DHT22;73031;44.726;37.760;2024-02-26T01:34:55;4.58;68.29
79010;DHT22;73031;44.726;37.760;2024-02-26T01:35:56;4.58;68.50
79010;DHT22;73031;44.726;37.760;2024-02-26T01:36:57;4.58;68.28
79010;DHT22;73031;44.726;37.760;2024-02-26T01:37:58;4.57;68.32
79010;DHT22;73031;44.726;37.760;2024-02-26T01:38:59;4.57;68.26
79010;DHT22;73031;44.726;37.760;2024-02-26T01:40:00;4.57;68.49
79010;DHT22;73031;44.726;37.760;2024-02-26T01:41:04;4.57;68.44
79010;DHT22;73031;44.726;37.760;2024-02-26T01:42:05;4.53;67.96
79010;DHT22;73031;44.726;37.760;2024-02-26T01:43:06;4.50;67.87
79010;DHT22;73031;44.726;37.760;2024-02-26T01:44:07;4.50;68.18
79010;DHT22;73031;44.726;37.760;2024-02-26T01:45:14;4.54;68.29
79010;DHT22;73031;44.726;37.760;2024-02-26T01:46:25;4.51;68.04
79010;DHT22;73031;44.726;37.760;2024-02-26T01:47:27;4.53;67.76
79010;DHT22;73031;44.726;37.760;2024-02-26T01:48:28;4.56;67.47
79010;DHT22;73031;44.726;37.760;2024-02-26T01:49:29;4.50;67.52
79010;DHT22;73031;44.726;37.760;2024-02-26T01:50:31;4.47;67.64
79010;DHT22;73031;44.726;37.760;2024-02-26T01:51:33;4.43;67.90
79010;DHT22;73031;44.726;37.760;2024-02-26T01:52:34;4.40;67.88
79010;DHT22;73031;44.726;37.760;2024-02-26T01:53:35;4.39;68.16
79010;DHT22;73031;44.726;37.760;2024-02-26T01:54:37;4.41;68.50
79010;DHT22;73031;44.726;37.760;2024-02-26T01:55:39;4.39;68.37
79010;DHT22;73031;44.726;37.760;2024-02-26T01:56:40;4.44;68.31
79010;DHT22;73031;44.726;37.760;2024-02-26T01:57:43;4.41;68.29
79010;DHT22;73031;44.726;37.760;2024-02-26T01:58:45;4.40;68.39
79010;DHT22;73031;44.726;37.760;2024-02-26T01:59:46;4.37;68.45
79010;DHT22;73031;44.726;37.760;2024-02-26T02:00:47;4.40;68.36
79010;DHT22;73031;44.726;37.760;2024-02-26T02:01:52;4.43;67.96
79010;DHT22;73031;44.726;37.760;2024-02-26T02:02:55;4.44;68.46
79010;DHT22;73031;44.726;37.760;2024-02-26T02:03:58;4.43;68.20
79010;DHT22;73031;44.726;37.760;2024-02-26T02:05:00;4.46;68.25
79010;DHT22;73031;44.726;37.760;2024-02-26T02:06:02;4.40;68.02
79010;DHT22;73031;44.726;37.760;2024-02-26T02:07:04;4.41;68.16
79010;DHT22;73031;44.726;37.760;2024-02-26T02:08:05;4.36;68.21
79010;DHT22;73031;44.726;37.760;2024-02-26T02:09:08;4.33;68.37
79010;DHT22;73031;44.726;37.760;2024-02-26T02:10:09;4.29;68.12
79010;DHT22;73031;44.726;37.760;2024-02-26T02:11:11;4.26;68.04
79010;DHT22;73031;44.726;37.760;2024-02-26T02:12:12;4.20;68.23
79010;DHT22;73031;44.726;37.760;2024-02-26T02:13:13;4.20;68.32
79010;DHT22;73031;44.726;37.760;2024-02-26T02:14:14;4.17;68.44
79010;DHT22;73031;44.726;37.760;2024-02-26T02:15:15;4.13;68.33
79010;DHT22;73031;44.726;37.760;2024-02-26T02:16:17;4.13;68.29
79010;DHT22;73031;44.726;37.760;2024-02-26T02:17:19;4.13;68.75
79010;DHT22;73031;44.726;37.760;2024-02-26T02:18:20;4.12;68.78
79010;DHT22;73031;44.726;37.760;2024-02-26T02:19:21;4.15;68.81
79010;DHT22;73031;44.726;37.760;2024-02-26T02:20:32;4.15;68.71
79010;DHT22;73031;44.726;37.760;2024-02-26T02:21:33;4.09;68.53
79010;DHT22;73031;44.726;37.760;2024-02-26T02:22:35;4.07;69.21
79010;DHT22;73031;44.726;37.760;2024-02-26T02:23:36;4.12;69.41
79010;DHT22;73031;44.726;37.760;2024-02-26T02:24:37;4.13;69.13
79010;DHT22;73031;44.726;37.760;2024-02-26T02:25:38;4.13;68.95
79010;DHT22;73031;44.726;37.760;2024-02-26T02:26:39;4.13;69.13
79010;DHT22;73031;44.726;37.760;2024-02-26T02:27:41;4.15;69.06
79010;DHT22;73031;44.726;37.760;2024-02-26T02:28:43;4.13;69.02
79010;DHT22;73031;44.726;37.760;2024-02-26T02:29:46;4.19;68.96
79010;DHT22;73031;44.726;37.760;2024-02-26T02:30:48;4.12;68.71
79010;DHT22;73031;44.726;37.760;2024-02-26T02:31:50;4.13;68.75
79010;DHT22;73031;44.726;37.760;2024-02-26T02:32:51;4.16;68.81
79010;DHT22;73031;44.726;37.760;2024-02-26T02:33:53;4.15;68.86
79010;DHT22;73031;44.726;37.760;2024-02-26T02:34:54;4.13;69.05
79010;DHT22;73031;44.726;37.760;2024-02-26T02:35:55;4.17;69.31
79010;DHT22;73031;44.726;37.760;2024-02-26T02:36:56;4.17;69.04
79010;DHT22;73031;44.726;37.760;2024-02-26T02:37:57;4.16;68.89
79010;DHT22;73031;44.726;37.760;2024-02-26T02:38:59;4.15;68.77
79010;DHT22;73031;44.726;37.760;2024-02-26T02:40:00;4.15;68.78
79010;DHT22;73031;44.726;37.760;2024-02-26T02:41:01;4.15;68.64
79010;DHT22;73031;44.726;37.760;2024-02-26T02:42:02;4.09;68.74
79010;DHT22;73031;44.726;37.760;2024-02-26T02:43:04;4.06;68.83
79010;DHT22;73031;44.726;37.760;2024-02-26T02:44:05;4.10;68.72
79010;DHT22;73031;44.726;37.760;2024-02-26T02:45:06;4.12;68.62
79010;DHT22;73031;44.726;37.760;2024-02-26T02:46:08;4.15;68.60
79010;DHT22;73031;44.726;37.760;2024-02-26T02:47:09;4.10;68.32
79010;DHT22;73031;44.726;37.760;2024-02-26T02:48:13;4.13;68.42
79010;DHT22;73031;44.726;37.760;2024-02-26T02:49:14;4.13;68.23
79010;DHT22;73031;44.726;37.760;2024-02-26T02:50:15;4.12;67.92
79010;DHT22;73031;44.726;37.760;2024-02-26T02:51:16;4.15;67.89
79010;DHT22;73031;44.726;37.760;2024-02-26T02:52:17;4.10;68.26
79010;DHT22;73031;44.726;37.760;2024-02-26T02:53:18;4.12;68.27
79010;DHT22;73031;44.726;37.760;2024-02-26T02:54:20;4.12;68.19
79010;DHT22;73031;44.726;37.760;2024-02-26T02:55:21;4.12;68.09
79010;DHT22;73031;44.726;37.760;2024-02-26T02:56:22;4.13;67.98
79010;DHT22;73031;44.726;37.760;2024-02-26T02:57:23;4.13;68.00
79010;DHT22;73031;44.726;37.760;2024-02-26T02:58:24;4.16;68.15
79010;DHT22;73031;44.726;37.760;2024-02-26T02:59:25;4.16;68.07
79010;DHT22;73031;44.726;37.760;2024-02-26T03:00:26;4.19;68.02
79010;DHT22;73031;44.726;37.760;2024-02-26T03:01:27;4.16;68.23
79010;DHT22;73031;44.726;37.760;2024-02-26T03:02:28;4.15;68.17
79010;DHT22;73031;44.726;37.760;2024-02-26T03:03:30;4.13;68.14
79010;DHT22;73031;44.726;37.760;2024-02-26T03:04:31;4.15;68.29
79010;DHT22;73031;44.726;37.760;2024-02-26T03:05:32;4.13;68.10
79010;DHT22;73031;44.726;37.760;2024-02-26T03:06:33;4.10;67.92
79010;DHT22;73031;44.726;37.760;2024-02-26T03:07:34;4.10;68.03
79010;DHT22;73031;44.726;37.760;2024-02-26T03:08:36;4.12;68.23
79010;DHT22;73031;44.726;37.760;2024-02-26T03:09:42;4.09;67.97
79010;DHT22;73031;44.726;37.760;2024-02-26T03:10:44;4.09;68.26
79010;DHT22;73031;44.726;37.760;2024-02-26T03:11:45;4.10;68.00
79010;DHT22;73031;44.726;37.760;2024-02-26T03:12:46;4.13;68.43
79010;DHT22;73031;44.726;37.760;2024-02-26T03:13:47;4.07;68.30
79010;DHT22;73031;44.726;37.760;2024-02-26T03:14:48;4.13;68.16
79010;DHT22;73031;44.726;37.760;2024-02-26T03:15:49;4.10;68.29
79010;DHT22;73031;44.726;37.760;2024-02-26T03:16:54;4.15;68.30
79010;DHT22;73031;44.726;37.760;2024-02-26T03:17:55;4.15;68.34
79010;DHT22;73031;44.726;37.760;2024-02-26T03:18:56;4.16;68.23
79010;DHT22;73031;44.726;37.760;2024-02-26T03:19:57;4.19;67.97
79010;DHT22;73031;44.726;37.760;2024-02-26T03:20:58;4.19;68.28
79010;DHT22;73031;44.726;37.760;2024-02-26T03:22:00;4.20;67.83
79010;DHT22;73031;44.726;37.760;2024-02-26T03:23:01;4.20;68.16
79010;DHT22;73031;44.726;37.760;2024-02-26T03:24:02;4.23;68.53
79010;DHT22;73031;44.726;37.760;2024-02-26T03:25:03;4.23;68.60
79010;DHT22;73031;44.726;37.760;2024-02-26T03:26:04;4.24;67.73
79010;DHT22;73031;44.726;37.760;2024-02-26T03:27:05;4.23;68.83
79010;DHT22;73031;44.726;37.760;2024-02-26T03:28:10;4.26;69.23
79010;DHT22;73031;44.726;37.760;2024-02-26T03:29:11;4.34;69.25
79010;DHT22;73031;44.726;37.760;2024-02-26T03:30:12;4.37;67.16
79010;DHT22;73031;44.726;37.760;2024-02-26T03:31:13;4.34;67.60
79010;DHT22;73031;44.726;37.760;2024-02-26T03:32:14;4.37;68.13
79010;DHT22;73031;44.726;37.760;2024-02-26T03:33:15;4.39;68.15
79010;DHT22;73031;44.726;37.760;2024-02-26T03:34:16;4.34;67.76
79010;DHT22;73031;44.726;37.760;2024-02-26T03:35:19;4.39;67.41
79010;DHT22;73031;44.726;37.760;2024-02-26T03:36:20;4.37;67.40
79010;DHT22;73031;44.726;37.760;2024-02-26T03:37:22;4.37;67.33
79010;DHT22;73031;44.726;37.760;2024-02-26T03:38:23;4.40;67.11
79010;DHT22;73031;44.726;37.760;2024-02-26T03:39:24;4.41;68.49
79010;DHT22;73031;44.726;37.760;2024-02-26T03:40:25;4.47;68.06
79010;DHT22;73031;44.726;37.760;2024-02-26T03:41:26;4.49;69.34
79010;DHT22;73031;44.726;37.760;2024-02-26T03:42:27;4.54;68.12
79010;DHT22;73031;44.726;37.760;2024-02-26T03:43:28;4.47;67.06
79010;DHT22;73031;44.726;37.760;2024-02-26T03:44:30;4.49;66.92
79010;DHT22;73031;44.726;37.760;2024-02-26T03:45:31;4.46;67.13
79010;DHT22;73031;44.726;37.760;2024-02-26T03:46:32;4.41;67.73
79010;DHT22;73031;44.726;37.760;2024-02-26T03:47:33;4.44;67.99
79010;DHT22;73031;44.726;37.760;2024-02-26T03:48:35;4.49;67.18
79010;DHT22;73031;44.726;37.760;2024-02-26T03:49:36;4.47;67.57
79010;DHT22;73031;44.726;37.760;2024-02-26T03:50:37;4.46;67.67
79010;DHT22;73031;44.726;37.760;2024-02-26T03:51:38;4.44;67.21
79010;DHT22;73031;44.726;37.760;2024-02-26T03:52:39;4.44;67.78
79010;DHT22;73031;44.726;37.760;2024-02-26T03:53:40;4.44;67.58
79010;DHT22;73031;44.726;37.760;2024-02-26T03:54:41;4.43;67.26
79010;DHT22;73031;44.726;37.760;2024-02-26T03:55:42;4.40;67.38
79010;DHT22;73031;44.726;37.760;2024-02-26T03:56:43;4.39;67.41
79010;DHT22;73031;44.726;37.760;2024-02-26T03:57:44;4.41;67.37
79010;DHT22;73031;44.726;37.760;2024-02-26T03:58:45;4.40;67.14
79010;DHT22;73031;44.726;37.760;2024-02-26T03:59:46;4.37;67.30
79010;DHT22;73031;44.726;37.760;2024-02-26T04:00:47;4.43;66.92
79010;DHT22;73031;44.726;37.760;2024-02-26T04:01:48;4.39;67.12
79010;DHT22;73031;44.726;37.760;2024-02-26T04:02:50;4.43;67.07
79010;DHT22;73031;44.726;37.760;2024-02-26T04:03:51;4.43;67.35
79010;DHT22;73031;44.726;37.760;2024-02-26T04:04:53;4.46;67.35
79010;DHT22;73031;44.726;37.760;2024-02-26T04:05:54;4.47;67.16
79010;DHT22;73031;44.726;37.760;2024-02-26T04:06:55;4.47;67.05
79010;DHT22;73031;44.726;37.760;2024-02-26T04:07:56;4.47;66.72
79010;DHT22;73031;44.726;37.760;2024-02-26T04:08:57;4.46;66.69
79010;DHT22;73031;44.726;37.760;2024-02-26T04:09:58;4.46;66.73
79010;DHT22;73031;44.726;37.760;2024-02-26T04:11:00;4.46;66.58
79010;DHT22;73031;44.726;37.760;2024-02-26T04:12:01;4.49;66.63
79010;DHT22;73031;44.726;37.760;2024-02-26T04:13:02;4.49;66.79
79010;DHT22;73031;44.726;37.760;2024-02-26T04:14:04;4.46;66.49
79010;DHT22;73031;44.726;37.760;2024-02-26T04:15:08;4.47;66.58
79010;DHT22;73031;44.726;37.760;2024-02-26T04:16:09;4.49;66.29
79010;DHT22;73031;44.726;37.760;2024-02-26T04:17:10;4.49;66.69
79010;DHT22;73031;44.726;37.760;2024-02-26T04:18:12;4.50;66.51
79010;DHT22;73031;44.726;37.760;2024-02-26T04:19:13;4.51;66.70
79010;DHT22;73031;44.726;37.760;2024-02-26T04:20:15;4.53;66.38
79010;DHT22;73031;44.726;37.760;2024-02-26T04:21:20;4.57;66.06
79010;DHT22;73031;44.726;37.760;2024-02-26T04:22:21;4.61;65.94
79010;DHT22;73031;44.726;37.760;2024-02-26T04:23:22;4.61;66.03
79010;DHT22;73031;44.726;37.760;2024-02-26T04:24:23;4.67;66.51
79010;DHT22;73031;44.726;37.760;2024-02-26T04:25:24;4.69;67.31
79010;DHT22;73031;44.726;37.760;2024-02-26T04:26:26;4.79;66.28
79010;DHT22;73031;44.726;37.760;2024-02-26T04:27:27;4.81;65.65
79010;DHT22;73031;44.726;37.760;2024-02-26T04:28:28;4.81;65.49
79010;DHT22;73031;44.726;37.760;2024-02-26T04:29:30;4.82;65.42
79010;DHT22;73031;44.726;37.760;2024-02-26T04:30:31;4.84;65.31
79010;DHT22;73031;44.726;37.760;2024-02-26T04:31:32;4.89;65.03
79010;DHT22;73031;44.726;37.760;2024-02-26T04:32:34;4.93;64.84
79010;DHT22;73031;44.726;37.760;2024-02-26T04:33:35;5.02;64.88
79010;DHT22;73031;44.726;37.760;2024-02-26T04:34:36;5.08;65.02
79010;DHT22;73031;44.726;37.760;2024-02-26T04:35:37;5.11;64.74
79010;DHT22;73031;44.726;37.760;2024-02-26T04:36:38;5.12;64.64
79010;DHT22;73031;44.726;37.760;2024-02-26T04:37:39;5.22;64.24
79010;DHT22;73031;44.726;37.760;2024-02-26T04:38:40;5.31;64.52
79010;DHT22;73031;44.726;37.760;2024-02-26T04:39:41;5.51;64.00
79010;DHT22;73031;44.726;37.760;2024-02-26T04:40:42;5.82;63.40
79010;DHT22;73031;44.726;37.760;2024-02-26T04:41:43;5.99;62.68
79010;DHT22;73031;44.726;37.760;2024-02-26T04:42:44;6.30;62.21
79010;DHT22;73031;44.726;37.760;2024-02-26T04:43:45;6.65;60.14
79010;DHT22;73031;44.726;37.760;2024-02-26T04:44:46;6.93;59.03
79010;DHT22;73031;44.726;37.760;2024-02-26T04:45:47;7.06;57.99
79010;DHT22;73031;44.726;37.760;2024-02-26T04:46:48;7.26;57.09
79010;DHT22;73031;44.726;37.760;2024-02-26T04:47:50;7.50;56.98
79010;DHT22;73031;44.726;37.760;2024-02-26T04:48:51;7.65;55.60
79010;DHT22;73031;44.726;37.760;2024-02-26T04:49:52;7.78;54.40
79010;DHT22;73031;44.726;37.760;2024-02-26T04:50:53;7.79;54.39
79010;DHT22;73031;44.726;37.760;2024-02-26T04:51:54;7.78;54.69
79010;DHT22;73031;44.726;37.760;2024-02-26T04:52:55;7.81;54.11
79010;DHT22;73031;44.726;37.760;2024-02-26T04:53:56;7.87;53.52
79010;DHT22;73031;44.726;37.760;2024-02-26T04:54:57;8.00;53.59
79010;DHT22;73031;44.726;37.760;2024-02-26T04:56:00;8.24;53.65
79010;DHT22;73031;44.726;37.760;2024-02-26T04:57:02;8.50;53.22
79010;DHT22;73031;44.726;37.760;2024-02-26T04:58:03;8.79;51.98
79010;DHT22;73031;44.726;37.760;2024-02-26T04:59:04;9.07;50.87
79010;DHT22;73031;44.726;37.760;2024-02-26T05:00:06;9.48;50.15
79010;DHT22;73031;44.726;37.760;2024-02-26T05:01:07;9.85;49.11
79010;DHT22;73031;44.726;37.760;2024-02-26T05:02:11;10.16;47.90
79010;DHT22;73031;44.726;37.760;2024-02-26T05:03:12;10.41;47.36
79010;DHT22;73031;44.726;37.760;2024-02-26T05:04:14;10.76;46.36
79010;DHT22;73031;44.726;37.760;2024-02-26T05:05:15;10.96;45.27
79010;DHT22;73031;44.726;37.760;2024-02-26T05:06:16;11.26;44.36
79010;DHT22;73031;44.726;37.760;2024-02-26T05:07:17;11.54;44.14
79010;DHT22;73031;44.726;37.760;2024-02-26T05:08:18;11.55;43.31
79010;DHT22;73031;44.726;37.760;2024-02-26T05:09:19;11.41;43.68
79010;DHT22;73031;44.726;37.760;2024-02-26T05:10:21;11.66;43.16
79010;DHT22;73031;44.726;37.760;2024-02-26T05:11:22;11.89;42.82
79010;DHT22;73031;44.726;37.760;2024-02-26T05:12:23;12.21;42.44
79010;DHT22;73031;44.726;37.760;2024-02-26T05:13:24;12.89;40.38
79010;DHT22;73031;44.726;37.760;2024-02-26T05:14:25;13.04;39.66
79010;DHT22;73031;44.726;37.760;2024-02-26T05:15:26;13.02;40.32
79010;DHT22;73031;44.726;37.760;2024-02-26T05:16:27;12.93;39.89
79010;DHT22;73031;44.726;37.760;2024-02-26T05:17:30;13.16;39.09
79010;DHT22;73031;44.726;37.760;2024-02-26T05:18:31;13.64;38.08
79010;DHT22;73031;44.726;37.760;2024-02-26T05:19:33;13.83;37.99
79010;DHT22;73031;44.726;37.760;2024-02-26T05:20:34;14.10;37.77
79010;DHT22;73031;44.726;37.760;2024-02-26T05:21:38;14.26;39.02
79010;DHT22;73031;44.726;37.760;2024-02-26T05:22:42;14.51;38.40
79010;DHT22;73031;44.726;37.760;2024-02-26T05:23:43;14.91;37.25
79010;DHT22;73031;44.726;37.760;2024-02-26T05:24:44;15.10;36.34
79010;DHT22;73031;44.726;37.760;2024-02-26T05:25:45;15.10;35.78
79010;DHT22;73031;44.726;37.760;2024-02-26T05:26:48;14.92;35.97
79010;DHT22;73031;44.726;37.760;2024-02-26T05:27:49;14.83;36.11
79010;DHT22;73031;44.726;37.760;2024-02-26T05:28:50;15.23;35.93
79010;DHT22;73031;44.726;37.760;2024-02-26T05:29:51;15.90;34.46
79010;DHT22;73031;44.726;37.760;2024-02-26T05:30:54;16.19;33.68
79010;DHT22;73031;44.726;37.760;2024-02-26T05:31:55;16.20;33.94
79010;DHT22;73031;44.726;37.760;2024-02-26T05:32:57;16.24;33.75
79010;DHT22;73031;44.726;37.760;2024-02-26T05:33:58;16.64;33.11
79010;DHT22;73031;44.726;37.760;2024-02-26T05:34:59;16.78;32.66
79010;DHT22;73031;44.726;37.760;2024-02-26T05:36:01;16.65;32.84
79010;DHT22;73031;44.726;37.760;2024-02-26T05:37:04;16.85;32.73
79010;DHT22;73031;44.726;37.760;2024-02-26T05:38:05;16.96;32.02
79010;DHT22;73031;44.726;37.760;2024-02-26T05:39:06;16.69;32.49
79010;DHT22;73031;44.726;37.760;2024-02-26T05:40:08;16.60;33.16
79010;DHT22;73031;44.726;37.760;2024-02-26T05:41:09;17.05;32.83
79010;DHT22;73031;44.726;37.760;2024-02-26T05:42:11;17.51;31.89
79010;DHT22;73031;44.726;37.760;2024-02-26T05:43:12;17.70;31.41
79010;DHT22;73031;44.726;37.760;2024-02-26T05:44:16;18.29;30.33
79010;DHT22;73031;44.726;37.760;2024-02-26T05:45:17;18.94;29.34
79010;DHT22;73031;44.726;37.760;2024-02-26T05:46:22;18.92;29.20
79010;DHT22;73031;44.726;37.760;2024-02-26T05:47:23;18.47;29.43
79010;DHT22;73031;44.726;37.760;2024-02-26T05:48:24;18.24;29.64
79010;DHT22;73031;44.726;37.760;2024-02-26T05:49:25;18.18;29.55
79010;DHT22;73031;44.726;37.760;2024-02-26T05:50:27;17.93;29.84
79010;DHT22;73031;44.726;37.760;2024-02-26T05:51:28;17.74;30.04
79010;DHT22;73031;44.726;37.760;2024-02-26T05:52:29;17.98;29.57
79010;DHT22;73031;44.726;37.760;2024-02-26T05:53:31;18.40;29.73
79010;DHT22;73031;44.726;37.760;2024-02-26T05:54:32;18.79;29.34
79010;DHT22;73031;44.726;37.760;2024-02-26T05:55:33;19.40;28.22
79010;DHT22;73031;44.726;37.760;2024-02-26T05:56:34;19.79;27.88
79010;DHT22;73031;44.726;37.760;2024-02-26T05:57:36;19.64;27.62
79010;DHT22;73031;44.726;37.760;2024-02-26T05:58:37;19.47;28.21
79010;DHT22;73031;44.726;37.760;2024-02-26T05:59:38;19.31;27.55
79010;DHT22;73031;44.726;37.760;2024-02-26T06:00:39;19.03;27.95
79010;DHT22;73031;44.726;37.760;2024-02-26T06:01:40;19.27;27.75
79010;DHT22;73031;44.726;37.760;2024-02-26T06:02:42;19.89;27.46
79010;DHT22;73031;44.726;37.760;2024-02-26T06:03:44;20.94;26.33
79010;DHT22;73031;44.726;37.760;2024-02-26T06:04:45;21.50;25.13
79010;DHT22;73031;44.726;37.760;2024-02-26T06:05:47;21.86;24.32
79010;DHT22;73031;44.726;37.760;2024-02-26T06:06:48;22.23;23.91
79010;DHT22;73031;44.726;37.760;2024-02-26T06:07:50;22.71;23.65
79010;DHT22;73031;44.726;37.760;2024-02-26T06:08:51;23.39;23.47
79010;DHT22;73031;44.726;37.760;2024-02-26T06:09:52;23.86;22.61
79010;DHT22;73031;44.726;37.760;2024-02-26T06:10:53;24.08;24.78
79010;DHT22;73031;44.726;37.760;2024-02-26T06:11:54;24.32;22.90
79010;DHT22;73031;44.726;37.760;2024-02-26T06:12:56;24.47;22.25
79010;DHT22;73031;44.726;37.760;2024-02-26T06:13:57;24.47;21.64
79010;DHT22;73031;44.726;37.760;2024-02-26T06:14:58;24.61;21.39
79010;DHT22;73031;44.726;37.760;2024-02-26T06:16:01;24.74;20.98
79010;DHT22;73031;44.726;37.760;2024-02-26T06:17:03;24.82;21.63
79010;DHT22;73031;44.726;37.760;2024-02-26T06:18:04;25.30;20.88
79010;DHT22;73031;44.726;37.760;2024-02-26T06:19:05;25.62;20.99
79010;DHT22;73031;44.726;37.760;2024-02-26T06:20:06;26.06;19.77
79010;DHT22;73031;44.726;37.760;2024-02-26T06:21:12;26.39;19.40
79010;DHT22;73031;44.726;37.760;2024-02-26T06:22:13;26.69;19.55
79010;DHT22;73031;44.726;37.760;2024-02-26T06:23:15;27.07;19.16
79010;DHT22;73031;44.726;37.760;2024-02-26T06:24:16;27.46;19.01
79010;DHT22;73031;44.726;37.760;2024-02-26T06:25:19;27.57;19.17
79010;DHT22;73031;44.726;37.760;2024-02-26T06:26:20;27.96;17.95
79010;DHT22;73031;44.726;37.760;2024-02-26T06:27:21;28.12;17.89